createdAt,value
2022-08-09T00:00:05.864Z,0
2022-08-09T00:06:15.231Z,0.88715
2022-08-09T00:11:24.473Z,0
2022-08-09T00:16:36.644Z,0.88715
2022-08-09T00:21:55.568Z,0
2022-08-09T00:26:59.692Z,0
2022-08-09T00:32:01.752Z,0.88715
2022-08-09T00:37:04.216Z,0.88715
2022-08-09T00:44:16.418Z,0
2022-08-09T00:49:28.090Z,0
2022-08-09T00:54:31.523Z,0
2022-08-09T00:59:46.025Z,0
2022-08-09T01:04:49.189Z,0
2022-08-09T01:09:51.958Z,0
2022-08-09T01:14:53.541Z,0
2022-08-09T01:20:02.696Z,0
2022-08-09T01:25:05.069Z,0
2022-08-09T01:30:08.273Z,0
2022-08-09T01:35:38.319Z,0
2022-08-09T01:40:40.537Z,0
2022-08-09T01:45:46.219Z,0
2022-08-09T01:50:55.232Z,0
2022-08-09T01:55:56.960Z,0
2022-08-09T02:00:58.564Z,0.88715
2022-08-09T02:06:06.285Z,0
2022-08-09T02:11:17.306Z,0
2022-08-09T02:16:19.287Z,0
2022-08-09T02:21:35.592Z,0
2022-08-09T02:26:42.742Z,0
2022-08-09T02:31:44.393Z,0.88715
2022-08-09T02:36:47.015Z,0
2022-08-09T02:41:54.063Z,0
2022-08-09T02:46:56.831Z,0
2022-08-09T02:51:58.489Z,0
2022-08-09T02:57:01.117Z,0
2022-08-09T03:02:16.885Z,0
2022-08-09T03:07:19.026Z,0.88715
2022-08-09T03:12:20.466Z,0
2022-08-09T03:17:26.758Z,0
2022-08-09T03:22:30.359Z,0
2022-08-09T03:27:44.574Z,0
2022-08-09T03:32:46.501Z,0
2022-08-09T03:37:55.835Z,0.88715
2022-08-09T03:42:58.751Z,0.88715
2022-08-09T03:48:00.413Z,0
2022-08-09T03:53:03.182Z,0.88715
2022-08-09T03:58:14.901Z,0.88715
2022-08-09T04:03:24.822Z,0.88715
2022-08-09T04:08:37.341Z,0.88715
2022-08-09T04:14:36.723Z,0.88715
2022-08-09T04:19:51.406Z,0.4148
2022-08-09T04:24:57.854Z,3.85445
2022-08-09T04:29:59.319Z,4.59225
2022-08-09T04:35:01.591Z,4.9776
2022-08-09T04:40:03.435Z,16.1556
2022-08-09T04:45:05.237Z,37.25335
2022-08-09T04:50:06.806Z,59.0889
2022-08-09T04:55:12.827Z,94.184
2022-08-09T05:00:16.722Z,129.09465
2022-08-09T05:05:18.989Z,161.6816
2022-08-09T05:10:33.571Z,195.24595
2022-08-09T05:15:47.692Z,222.39255
2022-08-09T05:20:49.930Z,248.3773
2022-08-09T05:25:52.714Z,266.9669
2022-08-09T05:30:54.159Z,295.0909
2022-08-09T05:35:57.555Z,314.97165
2022-08-09T05:41:00.097Z,340.42205
2022-08-09T05:46:01.725Z,369.4873
2022-08-09T05:51:30.375Z,393.90515
2022-08-09T05:56:54.837Z,415.3908
2022-08-09T06:01:58.833Z,444.08715
2022-08-09T06:07:00.719Z,470.4598
2022-08-09T06:12:03.178Z,457.56915
2022-08-09T06:17:05.031Z,469.79615
2022-08-09T06:22:15.003Z,472.96795
2022-08-09T06:27:17.190Z,536.4095
2022-08-09T06:32:58.926Z,503.02775
2022-08-09T06:38:47.295Z,626.7219
2022-08-09T06:43:53.203Z,661.7257
2022-08-09T06:48:57.387Z,682.23395
2022-08-09T06:54:01.316Z,700.8977
2022-08-09T07:00:48.647Z,715.89145
2022-08-09T07:06:03.431Z,746.9115
2022-08-09T07:11:06.677Z,769.98305
2022-08-09T07:16:41.087Z,800.21015
2022-08-09T07:21:56.938Z,748.8473
2022-08-09T07:27:00.372Z,787.3385
2022-08-09T07:32:02.108Z,914.5525
2022-08-09T07:37:04.759Z,932.9215
2022-08-09T07:42:06.560Z,941.55265
2022-08-09T07:47:09.854Z,980.35575
2022-08-09T07:52:16.798Z,996.2166
2022-08-09T07:57:19.033Z,1030.8705
2022-08-09T08:02:22.485Z,1078.4892
2022-08-09T08:08:43.326Z,1097.17195
2022-08-09T08:14:04.836Z,1143.44435
2022-08-09T08:19:08.041Z,1162.18225
2022-08-09T08:24:12.046Z,1185.1625
2022-08-09T08:29:20.131Z,1226.97195
2022-08-09T08:34:29.104Z,1260.77775
2022-08-09T08:39:39.185Z,1289.2535
2022-08-09T08:44:41.741Z,1315.03665
2022-08-09T08:49:48.290Z,1303.19755
2022-08-09T08:54:50.896Z,1333.8867
2022-08-09T08:59:57.269Z,1352.82805
2022-08-09T09:05:05.994Z,1383.3879
2022-08-09T09:10:11.616Z,1425.2525
2022-08-09T09:15:13.044Z,1435.74715
2022-08-09T09:20:30.449Z,1479.0132
2022-08-09T09:26:03.096Z,1501.9193
2022-08-09T09:31:17.532Z,1572.0372
2022-08-09T09:37:03.854Z,1546.0353
2022-08-09T09:42:08.943Z,1616.6324
2022-08-09T09:47:12.606Z,1601.56635
2022-08-09T09:52:16.396Z,1683.54235
2022-08-09T09:58:03.628Z,1739.1647
2022-08-09T10:03:14.247Z,1808.71025
2022-08-09T10:08:27.566Z,1783.68575
2022-08-09T10:13:45.227Z,1816.12625
2022-08-09T10:18:51.337Z,1797.1316
2022-08-09T10:23:56.250Z,1909.7949
2022-08-09T10:29:21.019Z,1922.5201
2022-08-09T10:34:37.613Z,1914.7009
2022-08-09T10:39:40.690Z,2021.979
2022-08-09T10:44:51.058Z,2177.4463
2022-08-09T10:49:54.611Z,2226.1337
2022-08-09T10:54:56.498Z,2280.99925
2022-08-09T11:00:01.480Z,2331.38285
2022-08-09T11:05:03.789Z,2355.11805
2022-08-09T11:10:06.380Z,2350.6551
2022-08-09T11:15:14.285Z,2336.15955
2022-08-09T11:20:22.547Z,2327.787
2022-08-09T11:25:26.082Z,2250.81015
2022-08-09T11:30:47.929Z,2251.3445
2022-08-09T11:35:51.932Z,2201.97445
2022-08-09T11:40:54.771Z,2270.8735
2022-08-09T11:45:57.628Z,2276.18455
2022-08-09T11:52:48.909Z,2338.9606
2022-08-09T11:58:06.226Z,2323.92885
2022-08-09T12:03:40.957Z,2368.005
2022-08-09T12:08:57.967Z,2418.66435
2022-08-09T12:14:10.580Z,2404.4997
2022-08-09T12:19:30.372Z,2391.07285
2022-08-09T12:24:31.804Z,2367.3738
2022-08-09T12:29:44.644Z,2413.8288
2022-08-09T12:34:54.227Z,2366.3394
2022-08-09T12:39:56.195Z,2324.7334
2022-08-09T12:44:59.350Z,2297.38335
2022-08-09T12:50:01.829Z,2276.69065
2022-08-09T12:56:11.562Z,2302.60125
2022-08-09T13:01:18.214Z,2206.0194
2022-08-09T13:06:23.461Z,2226.85855
2022-08-09T13:11:26.284Z,2209.6514
2022-08-09T13:16:27.949Z,2208.96875
2022-08-09T13:22:36.525Z,2189.3086
2022-08-09T13:27:54.913Z,2113.03155
2022-08-09T13:32:58.442Z,2043.78075
2022-08-09T13:38:00.005Z,1954.9078
2022-08-09T13:43:05.259Z,1866.64335
2022-08-09T13:48:11.227Z,1789.7578
2022-08-09T13:53:12.879Z,1749.7377
2022-08-09T13:58:14.581Z,1707.044
2022-08-09T14:04:02.930Z,1626.85735
2022-08-09T14:09:06.623Z,1564.1536
2022-08-09T14:14:24.006Z,1481.5691
2022-08-09T14:19:33.080Z,1383.4565
2022-08-09T14:24:35.425Z,1307.9724
2022-08-09T14:30:34.749Z,1212.1835
2022-08-09T14:35:52.314Z,1081.59425
2022-08-09T14:41:01.593Z,916.758
2022-08-09T14:46:56.604Z,787.38575
2022-08-09T14:52:06.840Z,594.3875
2022-08-09T14:57:08.565Z,479.4918
2022-08-09T15:02:10.145Z,373.96505
2022-08-09T15:07:14.295Z,285.97635
2022-08-09T15:12:18.835Z,216.7427
2022-08-09T15:17:21.822Z,156.795
2022-08-09T15:22:26.156Z,122.68245
2022-08-09T15:27:27.886Z,101.93275
2022-08-09T15:32:33.140Z,87.0113
2022-08-09T15:37:36.933Z,60.6938
2022-08-09T15:42:40.158Z,35.42785
2022-08-09T15:48:02.575Z,16.70895
2022-08-09T15:53:32.706Z,5.6887
2022-08-09T15:59:07.575Z,3.1406
2022-08-09T16:04:13.459Z,1.71845
2022-08-09T16:09:15.549Z,2.3237
2022-08-09T16:14:17.015Z,0
2022-08-09T16:19:25.887Z,0.88715
2022-08-09T16:24:33.715Z,0.88715
2022-08-09T16:29:38.014Z,0.88715
2022-08-09T16:34:55.673Z,0.88715
2022-08-09T16:40:05.008Z,0.88715
2022-08-09T16:45:07.823Z,0
2022-08-09T16:50:32.578Z,0.88715
2022-08-09T16:55:57.842Z,0.88715
2022-08-09T17:01:02.028Z,0
2022-08-09T17:06:28.297Z,0
2022-08-09T17:11:41.234Z,0
2022-08-09T17:16:44.719Z,0
2022-08-09T17:21:47.212Z,0
2022-08-09T17:26:53.514Z,0.88715
2022-08-09T17:31:55.455Z,0
2022-08-09T17:37:02.302Z,0.88715
2022-08-09T17:42:04.975Z,0
2022-08-09T17:47:10.466Z,0
2022-08-09T17:52:22.332Z,0.88715
2022-08-09T17:58:03.262Z,0
2022-08-09T18:03:06.887Z,0
2022-08-09T18:08:11.197Z,0
2022-08-09T18:13:53.677Z,0
2022-08-09T18:19:03.585Z,0
2022-08-09T18:24:12.275Z,0
2022-08-09T18:30:41.260Z,0
2022-08-09T18:35:58.765Z,0
2022-08-09T18:41:03.956Z,0
2022-08-09T18:46:47.641Z,0.88715
2022-08-09T18:51:57.892Z,0
2022-08-09T18:57:05.237Z,0
2022-08-09T19:02:09.258Z,0
2022-08-09T19:07:12.713Z,0.88715
2022-08-09T19:12:20.820Z,0
2022-08-09T19:17:24.418Z,0.88715
2022-08-09T19:22:33.974Z,0
2022-08-09T19:27:37.586Z,0
2022-08-09T19:32:40.760Z,0
2022-08-09T19:37:56.007Z,0
2022-08-09T19:42:59.776Z,0
2022-08-09T19:48:05.035Z,0
2022-08-09T19:53:07.365Z,0
2022-08-09T19:58:17.922Z,0
2022-08-09T20:04:10.934Z,0.88715
2022-08-09T20:09:44.895Z,0.88715
2022-08-09T20:14:53.162Z,0
2022-08-09T20:19:56.479Z,0.88715
2022-08-09T20:24:58.477Z,0
2022-08-09T20:30:02.760Z,0
2022-08-09T20:35:05.595Z,0
2022-08-09T20:40:15.847Z,0
2022-08-09T20:45:59.345Z,0
2022-08-09T20:51:19.606Z,0.88715
2022-08-09T20:56:21.999Z,0
2022-08-09T21:01:35.199Z,0
2022-08-09T21:06:52.584Z,0
2022-08-09T21:18:21.688Z,0
2022-08-09T21:23:47.886Z,0.88715
2022-08-09T21:28:55.890Z,0.88715
2022-08-09T21:33:58.783Z,0
2022-08-09T21:39:00.369Z,0
2022-08-09T21:44:02.000Z,0.88715
2022-08-09T21:49:05.475Z,0
2022-08-09T21:54:09.200Z,0.88715
2022-08-09T21:59:16.200Z,0
2022-08-09T22:04:17.909Z,0.88715
2022-08-09T22:09:22.276Z,0.88715
2022-08-09T22:14:25.398Z,0
2022-08-09T22:19:58.353Z,0.88715
2022-08-09T22:26:05.977Z,0.88715
2022-08-09T22:31:13.919Z,0
2022-08-09T22:36:19.225Z,0.88715
2022-08-09T22:41:21.457Z,0.88715
2022-08-09T22:48:12.788Z,0
2022-08-09T22:53:44.401Z,0
2022-08-09T22:59:05.425Z,0
2022-08-09T23:04:53.710Z,0
2022-08-09T23:09:55.995Z,0.88715
2022-08-09T23:14:57.629Z,0
2022-08-09T23:20:06.825Z,0
2022-08-09T23:25:09.932Z,0
2022-08-09T23:30:11.893Z,0
2022-08-09T23:35:13.432Z,0
2022-08-09T23:40:14.925Z,0
2022-08-09T23:45:36.877Z,0
2022-08-09T23:50:40.103Z,0
2022-08-09T23:55:47.303Z,0.88715
